Emigrant Pass, Nevada
Current Conditions -  °F | °C
As of 4:56 AM on Saturday 25 Oct 2014 (Local Time) from KEKO Reporting Station
Clear Clear  
Wind Chill: 58°   Ceiling: Unl
Heat Index: 58°   Visibility: 10mi
Dew Point: 27°   Wind: 13mph
Humidity: 31%   Direction: 270°W
Pressure: 30"   Gusts: NA
Location:  40.4796°N, 116.369°W
Report Text: KEKO 251156Z AUTO 27011KT 10SM CLR 14/M03 A3000 RMK AO2 SLP110 T01441028 10178 20122 56014
Loading
Personal Weather Stations






























Interactive Weather Map
Tropical Storm Tracking
New forecast layout! Learn more

10-Day Weather Forecast

Advertisements
Track Severe Weather on mobile